sensor_id;sensor_type;location;lat;lon;timestamp;P1;durP1;ratioP1;P2;durP2;ratioP2
66628;SDS011;53532;53.084;6.352;2023-03-14T00:01:57;29.05;;;6.18;;
66628;SDS011;53532;53.084;6.352;2023-03-14T00:04:23;25.48;;;6.47;;
66628;SDS011;53532;53.084;6.352;2023-03-14T00:06:49;23.63;;;5.75;;
66628;SDS011;53532;53.084;6.352;2023-03-14T00:09:15;29.00;;;6.50;;
66628;SDS011;53532;53.084;6.352;2023-03-14T00:11:43;24.20;;;6.20;;
66628;SDS011;53532;53.084;6.352;2023-03-14T00:14:09;25.17;;;6.15;;
66628;SDS011;53532;53.084;6.352;2023-03-14T00:16:35;22.70;;;5.40;;
66628;SDS011;53532;53.084;6.352;2023-03-14T00:19:01;21.45;;;5.53;;
66628;SDS011;53532;53.084;6.352;2023-03-14T00:21:27;26.15;;;6.00;;
66628;SDS011;53532;53.084;6.352;2023-03-14T00:23:54;19.13;;;4.97;;
66628;SDS011;53532;53.084;6.352;2023-03-14T00:26:20;25.98;;;5.38;;
66628;SDS011;53532;53.084;6.352;2023-03-14T00:28:51;20.55;;;5.47;;
66628;SDS011;53532;53.084;6.352;2023-03-14T00:31:17;20.95;;;5.38;;
66628;SDS011;53532;53.084;6.352;2023-03-14T00:33:44;24.52;;;5.95;;
66628;SDS011;53532;53.084;6.352;2023-03-14T00:36:11;19.23;;;5.22;;
66628;SDS011;53532;53.084;6.352;2023-03-14T00:38:38;22.13;;;5.78;;
66628;SDS011;53532;53.084;6.352;2023-03-14T00:41:05;24.40;;;6.03;;
66628;SDS011;53532;53.084;6.352;2023-03-14T00:43:31;24.13;;;5.93;;
66628;SDS011;53532;53.084;6.352;2023-03-14T00:45:59;23.15;;;5.78;;
66628;SDS011;53532;53.084;6.352;2023-03-14T00:48:25;20.05;;;4.97;;
66628;SDS011;53532;53.084;6.352;2023-03-14T00:50:51;22.60;;;5.35;;
66628;SDS011;53532;53.084;6.352;2023-03-14T00:53:18;16.63;;;4.97;;
66628;SDS011;53532;53.084;6.352;2023-03-14T00:55:44;23.05;;;5.70;;
66628;SDS011;53532;53.084;6.352;2023-03-14T00:58:11;20.67;;;4.82;;
66628;SDS011;53532;53.084;6.352;2023-03-14T01:00:37;25.67;;;5.43;;
66628;SDS011;53532;53.084;6.352;2023-03-14T01:03:05;24.42;;;5.63;;
66628;SDS011;53532;53.084;6.352;2023-03-14T01:05:32;23.90;;;6.43;;
66628;SDS011;53532;53.084;6.352;2023-03-14T01:07:58;21.92;;;4.82;;
66628;SDS011;53532;53.084;6.352;2023-03-14T01:10:24;21.58;;;5.10;;
66628;SDS011;53532;53.084;6.352;2023-03-14T01:12:50;22.52;;;5.05;;
66628;SDS011;53532;53.084;6.352;2023-03-14T01:15:17;18.88;;;4.85;;
66628;SDS011;53532;53.084;6.352;2023-03-14T01:17:43;19.33;;;4.78;;
66628;SDS011;53532;53.084;6.352;2023-03-14T01:20:11;18.90;;;5.47;;
66628;SDS011;53532;53.084;6.352;2023-03-14T01:22:39;17.75;;;4.88;;
66628;SDS011;53532;53.084;6.352;2023-03-14T01:25:05;16.55;;;4.20;;
66628;SDS011;53532;53.084;6.352;2023-03-14T01:27:32;20.38;;;4.53;;
66628;SDS011;53532;53.084;6.352;2023-03-14T01:29:58;18.92;;;4.32;;
66628;SDS011;53532;53.084;6.352;2023-03-14T01:32:24;16.08;;;4.65;;
66628;SDS011;53532;53.084;6.352;2023-03-14T01:34:50;19.45;;;4.90;;
66628;SDS011;53532;53.084;6.352;2023-03-14T01:37:18;16.70;;;4.40;;
66628;SDS011;53532;53.084;6.352;2023-03-14T01:39:46;19.67;;;5.18;;
66628;SDS011;53532;53.084;6.352;2023-03-14T01:42:12;17.75;;;4.13;;
66628;SDS011;53532;53.084;6.352;2023-03-14T01:44:48;15.65;;;3.75;;
66628;SDS011;53532;53.084;6.352;2023-03-14T01:47:14;17.73;;;4.30;;
66628;SDS011;53532;53.084;6.352;2023-03-14T01:49:40;17.63;;;4.28;;
66628;SDS011;53532;53.084;6.352;2023-03-14T01:52:07;14.10;;;3.72;;
66628;SDS011;53532;53.084;6.352;2023-03-14T01:54:38;14.02;;;3.80;;
66628;SDS011;53532;53.084;6.352;2023-03-14T01:57:07;18.00;;;3.80;;
66628;SDS011;53532;53.084;6.352;2023-03-14T01:59:34;17.65;;;4.20;;
66628;SDS011;53532;53.084;6.352;2023-03-14T02:02:02;14.73;;;3.58;;
66628;SDS011;53532;53.084;6.352;2023-03-14T02:04:32;16.45;;;3.45;;
66628;SDS011;53532;53.084;6.352;2023-03-14T02:07:00;12.68;;;3.45;;
66628;SDS011;53532;53.084;6.352;2023-03-14T02:09:28;15.30;;;3.95;;
66628;SDS011;53532;53.084;6.352;2023-03-14T02:11:57;20.35;;;3.70;;
66628;SDS011;53532;53.084;6.352;2023-03-14T02:14:29;14.77;;;3.17;;
66628;SDS011;53532;53.084;6.352;2023-03-14T02:16:56;18.70;;;4.55;;
66628;SDS011;53532;53.084;6.352;2023-03-14T02:19:25;14.50;;;3.30;;
66628;SDS011;53532;53.084;6.352;2023-03-14T02:21:54;18.77;;;3.70;;
66628;SDS011;53532;53.084;6.352;2023-03-14T02:24:22;12.55;;;3.08;;
66628;SDS011;53532;53.084;6.352;2023-03-14T02:27:08;16.50;;;4.15;;
66628;SDS011;53532;53.084;6.352;2023-03-14T02:29:36;14.35;;;3.08;;
66628;SDS011;53532;53.084;6.352;2023-03-14T02:32:04;13.77;;;3.55;;
66628;SDS011;53532;53.084;6.352;2023-03-14T02:34:30;15.38;;;4.30;;
66628;SDS011;53532;53.084;6.352;2023-03-14T02:36:57;10.07;;;3.30;;
66628;SDS011;53532;53.084;6.352;2023-03-14T02:39:24;14.43;;;3.83;;
66628;SDS011;53532;53.084;6.352;2023-03-14T02:41:53;14.25;;;3.67;;
66628;SDS011;53532;53.084;6.352;2023-03-14T02:44:21;14.65;;;3.80;;
66628;SDS011;53532;53.084;6.352;2023-03-14T02:46:48;16.05;;;3.83;;
66628;SDS011;53532;53.084;6.352;2023-03-14T02:49:14;10.77;;;3.83;;
66628;SDS011;53532;53.084;6.352;2023-03-14T02:51:42;9.57;;;3.40;;
66628;SDS011;53532;53.084;6.352;2023-03-14T02:54:08;14.35;;;4.45;;
66628;SDS011;53532;53.084;6.352;2023-03-14T02:56:35;15.63;;;4.22;;
66628;SDS011;53532;53.084;6.352;2023-03-14T02:59:02;13.73;;;4.18;;
66628;SDS011;53532;53.084;6.352;2023-03-14T03:01:29;14.98;;;4.45;;
66628;SDS011;53532;53.084;6.352;2023-03-14T03:03:56;16.13;;;4.32;;
66628;SDS011;53532;53.084;6.352;2023-03-14T03:06:22;12.65;;;4.35;;
66628;SDS011;53532;53.084;6.352;2023-03-14T03:08:48;16.50;;;5.30;;
66628;SDS011;53532;53.084;6.352;2023-03-14T03:11:14;11.88;;;4.80;;
66628;SDS011;53532;53.084;6.352;2023-03-14T03:13:40;17.20;;;4.38;;
66628;SDS011;53532;53.084;6.352;2023-03-14T03:16:07;15.90;;;4.53;;
66628;SDS011;53532;53.084;6.352;2023-03-14T03:18:34;18.50;;;5.38;;
66628;SDS011;53532;53.084;6.352;2023-03-14T03:21:01;16.85;;;5.00;;
66628;SDS011;53532;53.084;6.352;2023-03-14T03:23:27;17.15;;;5.07;;
66628;SDS011;53532;53.084;6.352;2023-03-14T03:25:53;17.17;;;5.35;;
66628;SDS011;53532;53.084;6.352;2023-03-14T03:28:19;15.50;;;5.07;;
66628;SDS011;53532;53.084;6.352;2023-03-14T03:30:46;19.50;;;6.10;;
66628;SDS011;53532;53.084;6.352;2023-03-14T03:33:12;17.27;;;5.38;;
66628;SDS011;53532;53.084;6.352;2023-03-14T03:35:43;16.55;;;6.15;;
66628;SDS011;53532;53.084;6.352;2023-03-14T03:38:10;23.02;;;6.43;;
66628;SDS011;53532;53.084;6.352;2023-03-14T03:40:36;16.27;;;5.80;;
66628;SDS011;53532;53.084;6.352;2023-03-14T03:43:03;18.20;;;6.10;;
66628;SDS011;53532;53.084;6.352;2023-03-14T03:45:29;20.45;;;6.40;;
66628;SDS011;53532;53.084;6.352;2023-03-14T03:47:55;20.38;;;6.97;;
66628;SDS011;53532;53.084;6.352;2023-03-14T03:50:21;22.67;;;6.32;;
66628;SDS011;53532;53.084;6.352;2023-03-14T03:52:49;23.63;;;6.32;;
66628;SDS011;53532;53.084;6.352;2023-03-14T03:55:15;19.75;;;6.40;;
66628;SDS011;53532;53.084;6.352;2023-03-14T03:57:41;20.38;;;6.75;;
66628;SDS011;53532;53.084;6.352;2023-03-14T04:00:08;19.23;;;6.43;;
66628;SDS011;53532;53.084;6.352;2023-03-14T04:02:36;21.95;;;6.97;;
66628;SDS011;53532;53.084;6.352;2023-03-14T04:05:03;20.35;;;6.75;;
66628;SDS011;53532;53.084;6.352;2023-03-14T04:07:31;22.60;;;7.43;;
66628;SDS011;53532;53.084;6.352;2023-03-14T04:09:58;21.92;;;7.07;;
66628;SDS011;53532;53.084;6.352;2023-03-14T04:12:24;18.25;;;7.18;;
66628;SDS011;53532;53.084;6.352;2023-03-14T04:14:51;23.23;;;8.35;;
66628;SDS011;53532;53.084;6.352;2023-03-14T04:17:17;23.70;;;7.90;;
66628;SDS011;53532;53.084;6.352;2023-03-14T04:19:43;21.83;;;8.38;;
66628;SDS011;53532;53.084;6.352;2023-03-14T04:22:09;21.35;;;8.45;;
66628;SDS011;53532;53.084;6.352;2023-03-14T04:24:35;21.27;;;8.15;;
66628;SDS011;53532;53.084;6.352;2023-03-14T04:27:03;23.63;;;8.77;;
66628;SDS011;53532;53.084;6.352;2023-03-14T04:29:29;20.35;;;9.27;;
66628;SDS011;53532;53.084;6.352;2023-03-14T04:31:55;21.48;;;9.43;;
66628;SDS011;53532;53.084;6.352;2023-03-14T04:34:21;20.75;;;10.43;;
66628;SDS011;53532;53.084;6.352;2023-03-14T04:36:47;24.98;;;10.98;;
66628;SDS011;53532;53.084;6.352;2023-03-14T04:39:14;21.25;;;10.38;;
66628;SDS011;53532;53.084;6.352;2023-03-14T04:41:40;24.35;;;10.60;;
66628;SDS011;53532;53.084;6.352;2023-03-14T04:44:07;25.65;;;10.85;;
66628;SDS011;53532;53.084;6.352;2023-03-14T04:46:33;22.73;;;10.35;;
66628;SDS011;53532;53.084;6.352;2023-03-14T04:48:59;21.50;;;9.32;;
66628;SDS011;53532;53.084;6.352;2023-03-14T04:51:26;22.42;;;10.27;;
66628;SDS011;53532;53.084;6.352;2023-03-14T04:53:52;25.13;;;10.48;;
66628;SDS011;53532;53.084;6.352;2023-03-14T04:56:19;27.98;;;10.07;;
66628;SDS011;53532;53.084;6.352;2023-03-14T04:58:45;25.13;;;9.77;;
66628;SDS011;53532;53.084;6.352;2023-03-14T05:01:13;20.90;;;9.23;;
66628;SDS011;53532;53.084;6.352;2023-03-14T05:03:39;21.13;;;8.80;;
66628;SDS011;53532;53.084;6.352;2023-03-14T05:06:05;21.63;;;9.23;;
66628;SDS011;53532;53.084;6.352;2023-03-14T05:08:31;21.60;;;8.77;;
66628;SDS011;53532;53.084;6.352;2023-03-14T05:10:58;21.75;;;8.60;;
66628;SDS011;53532;53.084;6.352;2023-03-14T05:13:24;22.45;;;8.75;;
66628;SDS011;53532;53.084;6.352;2023-03-14T05:15:50;24.25;;;8.43;;
66628;SDS011;53532;53.084;6.352;2023-03-14T05:18:18;20.92;;;8.30;;
66628;SDS011;53532;53.084;6.352;2023-03-14T05:20:44;21.85;;;8.18;;
66628;SDS011;53532;53.084;6.352;2023-03-14T05:23:10;19.52;;;8.05;;
66628;SDS011;53532;53.084;6.352;2023-03-14T05:25:37;17.98;;;8.07;;
66628;SDS011;53532;53.084;6.352;2023-03-14T05:28:03;20.33;;;8.35;;
66628;SDS011;53532;53.084;6.352;2023-03-14T05:30:29;20.98;;;7.80;;
66628;SDS011;53532;53.084;6.352;2023-03-14T05:32:57;17.23;;;7.60;;
66628;SDS011;53532;53.084;6.352;2023-03-14T05:35:24;17.60;;;6.88;;
66628;SDS011;53532;53.084;6.352;2023-03-14T05:37:51;16.50;;;7.97;;
66628;SDS011;53532;53.084;6.352;2023-03-14T05:40:17;21.33;;;7.70;;
66628;SDS011;53532;53.084;6.352;2023-03-14T05:42:43;19.13;;;8.25;;
66628;SDS011;53532;53.084;6.352;2023-03-14T05:45:09;15.48;;;7.43;;
66628;SDS011;53532;53.084;6.352;2023-03-14T05:47:36;18.70;;;8.10;;
66628;SDS011;53532;53.084;6.352;2023-03-14T05:50:02;18.55;;;8.18;;
66628;SDS011;53532;53.084;6.352;2023-03-14T05:52:30;20.55;;;8.68;;
66628;SDS011;53532;53.084;6.352;2023-03-14T05:54:56;20.00;;;8.10;;
66628;SDS011;53532;53.084;6.352;2023-03-14T05:57:22;18.05;;;8.38;;
66628;SDS011;53532;53.084;6.352;2023-03-14T05:59:48;22.88;;;8.52;;
66628;SDS011;53532;53.084;6.352;2023-03-14T06:02:14;22.23;;;7.80;;
66628;SDS011;53532;53.084;6.352;2023-03-14T06:04:40;17.80;;;7.85;;
66628;SDS011;53532;53.084;6.352;2023-03-14T06:07:06;18.80;;;8.05;;
66628;SDS011;53532;53.084;6.352;2023-03-14T06:09:34;17.00;;;7.63;;
66628;SDS011;53532;53.084;6.352;2023-03-14T06:12:00;15.85;;;7.35;;
66628;SDS011;53532;53.084;6.352;2023-03-14T06:14:26;16.67;;;7.57;;
66628;SDS011;53532;53.084;6.352;2023-03-14T06:16:52;15.80;;;7.35;;
66628;SDS011;53532;53.084;6.352;2023-03-14T06:19:19;15.38;;;6.97;;
66628;SDS011;53532;53.084;6.352;2023-03-14T06:21:45;17.10;;;7.15;;
66628;SDS011;53532;53.084;6.352;2023-03-14T06:24:11;15.93;;;7.32;;
66628;SDS011;53532;53.084;6.352;2023-03-14T06:26:38;15.40;;;7.60;;
66628;SDS011;53532;53.084;6.352;2023-03-14T06:29:05;15.40;;;7.07;;
66628;SDS011;53532;53.084;6.352;2023-03-14T06:31:31;17.98;;;7.45;;
66628;SDS011;53532;53.084;6.352;2023-03-14T06:33:57;13.85;;;5.57;;
66628;SDS011;53532;53.084;6.352;2023-03-14T06:36:24;13.35;;;5.05;;
66628;SDS011;53532;53.084;6.352;2023-03-14T06:38:50;9.77;;;4.57;;
66628;SDS011;53532;53.084;6.352;2023-03-14T06:41:16;7.43;;;1.20;;
66628;SDS011;53532;53.084;6.352;2023-03-14T06:43:44;8.10;;;1.23;;
66628;SDS011;53532;53.084;6.352;2023-03-14T06:46:10;14.32;;;2.13;;
66628;SDS011;53532;53.084;6.352;2023-03-14T06:48:36;12.00;;;1.90;;
66628;SDS011;53532;53.084;6.352;2023-03-14T06:51:02;13.43;;;2.28;;
66628;SDS011;53532;53.084;6.352;2023-03-14T06:53:28;12.65;;;2.00;;
66628;SDS011;53532;53.084;6.352;2023-03-14T06:55:55;10.80;;;1.90;;
66628;SDS011;53532;53.084;6.352;2023-03-14T06:58:21;17.13;;;2.25;;
66628;SDS011;53532;53.084;6.352;2023-03-14T07:00:48;15.75;;;2.08;;
66628;SDS011;53532;53.084;6.352;2023-03-14T07:03:14;12.20;;;2.10;;
66628;SDS011;53532;53.084;6.352;2023-03-14T07:05:41;13.52;;;1.98;;
66628;SDS011;53532;53.084;6.352;2023-03-14T07:08:07;10.45;;;1.52;;
66628;SDS011;53532;53.084;6.352;2023-03-14T07:10:33;11.07;;;1.60;;
66628;SDS011;53532;53.084;6.352;2023-03-14T07:12:59;7.65;;;1.20;;
66628;SDS011;53532;53.084;6.352;2023-03-14T07:15:25;6.88;;;1.38;;
66628;SDS011;53532;53.084;6.352;2023-03-14T07:17:53;10.30;;;1.45;;
66628;SDS011;53532;53.084;6.352;2023-03-14T07:20:19;8.87;;;1.23;;
66628;SDS011;53532;53.084;6.352;2023-03-14T07:22:47;9.23;;;1.27;;
66628;SDS011;53532;53.084;6.352;2023-03-14T07:25:14;8.17;;;1.10;;
66628;SDS011;53532;53.084;6.352;2023-03-14T07:27:40;6.70;;;1.03;;
66628;SDS011;53532;53.084;6.352;2023-03-14T07:30:09;12.80;;;1.33;;
66628;SDS011;53532;53.084;6.352;2023-03-14T07:32:35;7.20;;;1.07;;
66628;SDS011;53532;53.084;6.352;2023-03-14T07:35:03;8.17;;;0.87;;
66628;SDS011;53532;53.084;6.352;2023-03-14T07:37:29;7.90;;;1.27;;
66628;SDS011;53532;53.084;6.352;2023-03-14T07:39:55;9.70;;;1.20;;
66628;SDS011;53532;53.084;6.352;2023-03-14T07:42:21;5.87;;;0.97;;
66628;SDS011;53532;53.084;6.352;2023-03-14T07:44:48;8.10;;;1.20;;
66628;SDS011;53532;53.084;6.352;2023-03-14T07:47:14;6.23;;;0.90;;
66628;SDS011;53532;53.084;6.352;2023-03-14T07:49:40;7.20;;;1.10;;
66628;SDS011;53532;53.084;6.352;2023-03-14T07:52:07;7.40;;;1.00;;
66628;SDS011;53532;53.084;6.352;2023-03-14T07:54:33;7.83;;;0.90;;
66628;SDS011;53532;53.084;6.352;2023-03-14T07:57:00;4.40;;;0.90;;
66628;SDS011;53532;53.084;6.352;2023-03-14T07:59:26;5.87;;;1.43;;
66628;SDS011;53532;53.084;6.352;2023-03-14T08:01:52;6.80;;;1.07;;
66628;SDS011;53532;53.084;6.352;2023-03-14T08:04:18;8.80;;;1.30;;
66628;SDS011;53532;53.084;6.352;2023-03-14T08:06:44;8.93;;;1.30;;
66628;SDS011;53532;53.084;6.352;2023-03-14T08:09:12;10.10;;;1.70;;
66628;SDS011;53532;53.084;6.352;2023-03-14T08:11:38;6.03;;;1.37;;
66628;SDS011;53532;53.084;6.352;2023-03-14T08:14:04;8.90;;;1.70;;
66628;SDS011;53532;53.084;6.352;2023-03-14T08:16:30;10.30;;;1.47;;
66628;SDS011;53532;53.084;6.352;2023-03-14T08:18:56;7.20;;;1.33;;
66628;SDS011;53532;53.084;6.352;2023-03-14T08:21:22;7.60;;;1.20;;
66628;SDS011;53532;53.084;6.352;2023-03-14T08:23:49;6.20;;;1.10;;
66628;SDS011;53532;53.084;6.352;2023-03-14T08:26:16;8.17;;;1.23;;
66628;SDS011;53532;53.084;6.352;2023-03-14T08:28:42;9.47;;;1.83;;
66628;SDS011;53532;53.084;6.352;2023-03-14T08:31:08;7.87;;;1.30;;
66628;SDS011;53532;53.084;6.352;2023-03-14T08:33:35;9.90;;;1.30;;
66628;SDS011;53532;53.084;6.352;2023-03-14T08:36:01;7.53;;;1.60;;
66628;SDS011;53532;53.084;6.352;2023-03-14T08:38:27;11.87;;;2.17;;
66628;SDS011;53532;53.084;6.352;2023-03-14T08:40:56;6.93;;;1.50;;
66628;SDS011;53532;53.084;6.352;2023-03-14T08:43:25;8.75;;;1.75;;
66628;SDS011;53532;53.084;6.352;2023-03-14T08:45:51;12.10;;;1.53;;
66628;SDS011;53532;53.084;6.352;2023-03-14T08:48:17;10.20;;;1.77;;
66628;SDS011;53532;53.084;6.352;2023-03-14T08:50:44;9.90;;;1.60;;
66628;SDS011;53532;53.084;6.352;2023-03-14T08:53:10;10.10;;;1.90;;
66628;SDS011;53532;53.084;6.352;2023-03-14T08:55:36;12.23;;;2.10;;
66628;SDS011;53532;53.084;6.352;2023-03-14T08:58:03;11.73;;;2.10;;
66628;SDS011;53532;53.084;6.352;2023-03-14T09:00:30;11.77;;;2.15;;
66628;SDS011;53532;53.084;6.352;2023-03-14T09:02:56;11.32;;;2.17;;
66628;SDS011;53532;53.084;6.352;2023-03-14T09:05:22;11.30;;;2.20;;
66628;SDS011;53532;53.084;6.352;2023-03-14T09:07:48;12.55;;;2.45;;
66628;SDS011;53532;53.084;6.352;2023-03-14T09:10:15;15.07;;;2.97;;
66628;SDS011;53532;53.084;6.352;2023-03-14T09:12:41;17.55;;;3.35;;
66628;SDS011;53532;53.084;6.352;2023-03-14T09:15:08;14.57;;;3.00;;
66628;SDS011;53532;53.084;6.352;2023-03-14T09:17:35;20.80;;;3.20;;
66628;SDS011;53532;53.084;6.352;2023-03-14T09:20:02;17.00;;;3.53;;
66628;SDS011;53532;53.084;6.352;2023-03-14T09:22:31;22.77;;;3.90;;
66628;SDS011;53532;53.084;6.352;2023-03-14T09:25:00;17.02;;;3.67;;
66628;SDS011;53532;53.084;6.352;2023-03-14T09:27:26;20.00;;;3.40;;
66628;SDS011;53532;53.084;6.352;2023-03-14T09:29:52;20.50;;;3.58;;
66628;SDS011;53532;53.084;6.352;2023-03-14T09:32:18;16.27;;;3.88;;
66628;SDS011;53532;53.084;6.352;2023-03-14T09:34:46;17.77;;;3.45;;
66628;SDS011;53532;53.084;6.352;2023-03-14T09:37:12;20.15;;;3.33;;
66628;SDS011;53532;53.084;6.352;2023-03-14T09:39:40;20.00;;;3.45;;
66628;SDS011;53532;53.084;6.352;2023-03-14T09:42:07;18.88;;;3.50;;
66628;SDS011;53532;53.084;6.352;2023-03-14T09:44:34;19.00;;;3.38;;
66628;SDS011;53532;53.084;6.352;2023-03-14T09:47:03;17.08;;;3.63;;
66628;SDS011;53532;53.084;6.352;2023-03-14T09:49:31;19.08;;;3.95;;
66628;SDS011;53532;53.084;6.352;2023-03-14T09:52:00;18.70;;;3.30;;
66628;SDS011;53532;53.084;6.352;2023-03-14T09:54:30;18.73;;;3.17;;
66628;SDS011;53532;53.084;6.352;2023-03-14T09:56:57;18.08;;;3.75;;
66628;SDS011;53532;53.084;6.352;2023-03-14T09:59:23;21.73;;;4.88;;
66628;SDS011;53532;53.084;6.352;2023-03-14T10:01:49;18.95;;;4.25;;
66628;SDS011;53532;53.084;6.352;2023-03-14T10:04:17;20.00;;;3.88;;
66628;SDS011;53532;53.084;6.352;2023-03-14T10:06:48;22.50;;;3.50;;
66628;SDS011;53532;53.084;6.352;2023-03-14T10:09:17;22.98;;;4.30;;
66628;SDS011;53532;53.084;6.352;2023-03-14T10:11:45;18.20;;;3.20;;
66628;SDS011;53532;53.084;6.352;2023-03-14T10:14:11;20.70;;;4.05;;
66628;SDS011;53532;53.084;6.352;2023-03-14T10:16:40;19.48;;;3.95;;
66628;SDS011;53532;53.084;6.352;2023-03-14T10:19:09;17.08;;;3.20;;
66628;SDS011;53532;53.084;6.352;2023-03-14T10:21:36;19.52;;;4.18;;
66628;SDS011;53532;53.084;6.352;2023-03-14T10:24:10;15.98;;;3.53;;
66628;SDS011;53532;53.084;6.352;2023-03-14T10:26:38;17.98;;;3.45;;
66628;SDS011;53532;53.084;6.352;2023-03-14T10:29:08;16.35;;;3.10;;
66628;SDS011;53532;53.084;6.352;2023-03-14T10:31:45;17.33;;;3.47;;
66628;SDS011;53532;53.084;6.352;2023-03-14T10:34:14;17.88;;;3.10;;
66628;SDS011;53532;53.084;6.352;2023-03-14T10:36:41;16.38;;;3.20;;
66628;SDS011;53532;53.084;6.352;2023-03-14T10:39:21;14.02;;;2.90;;
66628;SDS011;53532;53.084;6.352;2023-03-14T10:41:49;15.73;;;3.60;;
66628;SDS011;53532;53.084;6.352;2023-03-14T10:44:15;15.65;;;2.88;;
66628;SDS011;53532;53.084;6.352;2023-03-14T10:46:43;14.48;;;3.03;;
66628;SDS011;53532;53.084;6.352;2023-03-14T10:49:16;14.20;;;2.60;;
66628;SDS011;53532;53.084;6.352;2023-03-14T10:51:48;14.95;;;2.92;;
66628;SDS011;53532;53.084;6.352;2023-03-14T10:54:19;14.60;;;2.33;;
66628;SDS011;53532;53.084;6.352;2023-03-14T10:56:47;11.80;;;2.72;;
66628;SDS011;53532;53.084;6.352;2023-03-14T10:59:23;11.77;;;2.40;;
66628;SDS011;53532;53.084;6.352;2023-03-14T11:01:51;10.80;;;2.22;;
66628;SDS011;53532;53.084;6.352;2023-03-14T11:04:22;10.88;;;2.15;;
66628;SDS011;53532;53.084;6.352;2023-03-14T11:06:53;11.93;;;2.38;;
66628;SDS011;53532;53.084;6.352;2023-03-14T11:09:23;14.10;;;2.20;;
66628;SDS011;53532;53.084;6.352;2023-03-14T11:11:52;13.15;;;2.63;;
66628;SDS011;53532;53.084;6.352;2023-03-14T11:14:25;10.98;;;2.72;;
66628;SDS011;53532;53.084;6.352;2023-03-14T11:16:56;13.90;;;2.40;;
66628;SDS011;53532;53.084;6.352;2023-03-14T11:19:36;11.68;;;2.40;;
66628;SDS011;53532;53.084;6.352;2023-03-14T11:22:10;16.13;;;2.50;;
66628;SDS011;53532;53.084;6.352;2023-03-14T11:24:41;10.27;;;2.45;;
66628;SDS011;53532;53.084;6.352;2023-03-14T11:27:14;13.93;;;2.28;;
66628;SDS011;53532;53.084;6.352;2023-03-14T11:29:44;12.20;;;2.00;;
66628;SDS011;53532;53.084;6.352;2023-03-14T11:32:12;9.38;;;1.55;;
66628;SDS011;53532;53.084;6.352;2023-03-14T11:34:40;10.45;;;2.45;;
66628;SDS011;53532;53.084;6.352;2023-03-14T11:37:12;11.70;;;1.90;;
66628;SDS011;53532;53.084;6.352;2023-03-14T11:39:41;8.45;;;1.75;;
66628;SDS011;53532;53.084;6.352;2023-03-14T11:42:08;10.55;;;1.70;;
66628;SDS011;53532;53.084;6.352;2023-03-14T11:44:38;10.07;;;1.92;;
66628;SDS011;53532;53.084;6.352;2023-03-14T11:47:07;11.32;;;2.00;;
66628;SDS011;53532;53.084;6.352;2023-03-14T11:49:36;9.60;;;1.58;;
66628;SDS011;53532;53.084;6.352;2023-03-14T11:52:05;7.28;;;1.63;;
66628;SDS011;53532;53.084;6.352;2023-03-14T11:54:34;6.93;;;1.40;;
66628;SDS011;53532;53.084;6.352;2023-03-14T11:57:02;8.25;;;1.48;;
66628;SDS011;53532;53.084;6.352;2023-03-14T11:59:31;10.02;;;1.90;;
66628;SDS011;53532;53.084;6.352;2023-03-14T12:02:00;7.32;;;1.70;;
66628;SDS011;53532;53.084;6.352;2023-03-14T12:04:39;14.75;;;2.03;;
66628;SDS011;53532;53.084;6.352;2023-03-14T12:07:07;11.13;;;1.90;;
66628;SDS011;53532;53.084;6.352;2023-03-14T12:09:35;8.05;;;1.55;;
66628;SDS011;53532;53.084;6.352;2023-03-14T12:12:02;7.28;;;1.55;;
66628;SDS011;53532;53.084;6.352;2023-03-14T12:14:30;9.95;;;2.00;;
66628;SDS011;53532;53.084;6.352;2023-03-14T12:16:58;9.07;;;1.70;;
66628;SDS011;53532;53.084;6.352;2023-03-14T12:19:29;7.60;;;1.70;;
66628;SDS011;53532;53.084;6.352;2023-03-14T12:21:58;6.72;;;1.60;;
66628;SDS011;53532;53.084;6.352;2023-03-14T12:24:26;8.15;;;1.58;;
66628;SDS011;53532;53.084;6.352;2023-03-14T12:26:54;7.97;;;1.40;;
66628;SDS011;53532;53.084;6.352;2023-03-14T12:29:21;10.65;;;2.08;;
66628;SDS011;53532;53.084;6.352;2023-03-14T12:31:48;7.88;;;1.70;;
66628;SDS011;53532;53.084;6.352;2023-03-14T12:34:30;9.95;;;1.90;;
66628;SDS011;53532;53.084;6.352;2023-03-14T12:39:55;8.57;;;1.60;;
66628;SDS011;53532;53.084;6.352;2023-03-14T12:42:35;9.02;;;1.80;;
66628;SDS011;53532;53.084;6.352;2023-03-14T12:45:20;11.70;;;2.13;;
66628;SDS011;53532;53.084;6.352;2023-03-14T12:47:52;8.48;;;1.60;;
66628;SDS011;53532;53.084;6.352;2023-03-14T12:50:20;10.23;;;1.98;;
66628;SDS011;53532;53.084;6.352;2023-03-14T12:52:54;7.82;;;1.58;;
66628;SDS011;53532;53.084;6.352;2023-03-14T12:55:27;10.82;;;1.95;;
66628;SDS011;53532;53.084;6.352;2023-03-14T12:57:55;13.93;;;2.47;;
66628;SDS011;53532;53.084;6.352;2023-03-14T13:00:29;12.13;;;2.38;;
66628;SDS011;53532;53.084;6.352;2023-03-14T13:03:00;10.35;;;1.95;;
66628;SDS011;53532;53.084;6.352;2023-03-14T13:05:28;12.48;;;1.98;;
66628;SDS011;53532;53.084;6.352;2023-03-14T13:08:02;8.85;;;1.60;;
66628;SDS011;53532;53.084;6.352;2023-03-14T13:10:30;7.80;;;1.50;;
66628;SDS011;53532;53.084;6.352;2023-03-14T13:12:57;9.27;;;1.70;;
66628;SDS011;53532;53.084;6.352;2023-03-14T13:15:28;7.45;;;1.42;;
66628;SDS011;53532;53.084;6.352;2023-03-14T13:17:56;6.25;;;1.52;;
66628;SDS011;53532;53.084;6.352;2023-03-14T13:20:27;8.32;;;1.65;;
66628;SDS011;53532;53.084;6.352;2023-03-14T13:22:54;8.30;;;1.90;;
66628;SDS011;53532;53.084;6.352;2023-03-14T13:25:21;7.57;;;1.80;;
66628;SDS011;53532;53.084;6.352;2023-03-14T13:27:49;10.07;;;2.20;;
66628;SDS011;53532;53.084;6.352;2023-03-14T13:30:16;9.20;;;1.67;;
66628;SDS011;53532;53.084;6.352;2023-03-14T13:32:43;7.50;;;1.42;;
66628;SDS011;53532;53.084;6.352;2023-03-14T13:35:14;10.38;;;1.58;;
66628;SDS011;53532;53.084;6.352;2023-03-14T13:37:41;6.43;;;1.55;;
66628;SDS011;53532;53.084;6.352;2023-03-14T13:40:17;10.63;;;1.95;;
66628;SDS011;53532;53.084;6.352;2023-03-14T13:42:44;10.07;;;1.75;;
66628;SDS011;53532;53.084;6.352;2023-03-14T13:45:13;13.27;;;2.03;;
66628;SDS011;53532;53.084;6.352;2023-03-14T13:47:39;7.28;;;1.75;;
66628;SDS011;53532;53.084;6.352;2023-03-14T13:50:11;8.82;;;1.65;;
66628;SDS011;53532;53.084;6.352;2023-03-14T13:52:38;11.65;;;1.73;;
66628;SDS011;53532;53.084;6.352;2023-03-14T13:55:06;7.50;;;1.80;;
66628;SDS011;53532;53.084;6.352;2023-03-14T13:57:42;7.85;;;1.38;;
66628;SDS011;53532;53.084;6.352;2023-03-14T14:00:17;6.95;;;1.52;;
66628;SDS011;53532;53.084;6.352;2023-03-14T14:02:44;6.70;;;1.48;;
66628;SDS011;53532;53.084;6.352;2023-03-14T14:05:10;11.30;;;1.80;;
66628;SDS011;53532;53.084;6.352;2023-03-14T14:07:37;8.30;;;1.80;;
66628;SDS011;53532;53.084;6.352;2023-03-14T14:10:04;8.82;;;1.80;;
66628;SDS011;53532;53.084;6.352;2023-03-14T14:12:31;12.60;;;2.20;;
66628;SDS011;53532;53.084;6.352;2023-03-14T14:14:59;9.80;;;1.80;;
66628;SDS011;53532;53.084;6.352;2023-03-14T14:17:28;8.23;;;1.45;;
66628;SDS011;53532;53.084;6.352;2023-03-14T14:19:58;9.82;;;2.00;;
66628;SDS011;53532;53.084;6.352;2023-03-14T14:22:25;11.27;;;2.10;;
66628;SDS011;53532;53.084;6.352;2023-03-14T14:24:52;10.70;;;2.25;;
66628;SDS011;53532;53.084;6.352;2023-03-14T14:27:19;12.52;;;1.77;;
66628;SDS011;53532;53.084;6.352;2023-03-14T14:29:57;9.93;;;2.42;;
66628;SDS011;53532;53.084;6.352;2023-03-14T14:32:24;11.57;;;2.30;;
66628;SDS011;53532;53.084;6.352;2023-03-14T14:34:55;8.35;;;1.92;;
66628;SDS011;53532;53.084;6.352;2023-03-14T14:37:24;6.68;;;1.63;;
66628;SDS011;53532;53.084;6.352;2023-03-14T14:39:53;7.00;;;1.88;;
66628;SDS011;53532;53.084;6.352;2023-03-14T14:42:20;12.13;;;1.80;;
66628;SDS011;53532;53.084;6.352;2023-03-14T14:44:50;9.63;;;1.80;;